Bitte die für das Benutzerkonto hinterlegte E-Mail-Adresse eingeben. Der Benutzername wird dann an diese E-Mail-Adresse geschickt.

 

 

WebCam

  
Kamera Halle
Kamera Vorplatz
Wetter EDDS

METAR

WX-Data not avlb.
(due to wrong input of icao-codes or 'allow_url_fopen' is OFF [0] and cURL not enabled [1] on this server!)


TAF

EDDS 171100Z 1712/1812 VRB02KT CAVOK =


SR/SS

05:45 / 16:27 UTC
(EDSO 17-10-2017)

Austräger der GPS Triangle WM 2017